Atwood, Colorado
Current Conditions -  °F | °C
As of 3:53 AM on Friday 31 Oct 2014 (Local Time) from KAKO Reporting Station
Clear Clear  
Wind Chill: 21°   Ceiling: Unl
Heat Index: 30°   Visibility: 10mi
Dew Point: 28°   Wind: 12mph
Humidity: 92%   Direction: 130°SE
Pressure: 30.41"   Gusts: NA
Location:  40.55°N, 103.27°W
Report Text: KAKO 310953Z AUTO 13010KT 10SM CLR M01/M02 A3041 RMK AO2 SLP293 T10111022
Loading
Personal Weather Stations






























Interactive Weather Map
Tropical Storm Tracking
New forecast layout! Learn more

10-Day Weather Forecast

Advertisements
Track Severe Weather on mobile